Franklin Grove, IL

9:28 PM CST on January 29, 2015 (GMT -0600)
Lost Lake Ogle County, Illinois | Change Station
CLOSE
Current Station
Personal Weather Station
Location: Dixon, IL
Elevation: 761 ft
Nearby Weather Stations

Elev 761 ft 41.91 °N, 89.35 °W | Updated 1 second ago

Overcast
Overcast
32.5 °F
Feels Like 28 °F
N
5.0
Wind Variable Wind from NW
Gusts 8.0 mph

Today
High -- | Low -- °F
--% Chance of Precip.
Yesterday
High -- | Low -- °F
Precip. -- in
7:12 AM 5:08 PM
Waxing Gibbous, 79% visible
Pressure 30.29 in
Visibility 10.0 miles
Clouds Scattered Clouds 3300 ft
Overcast 4200 ft
Windchill 28 °F
Dew Point 26 °F
Humidity 75%
Rainfall 0.00 in
Snow Depth Not available.
UV 0 out of 12
Pollen .10 out of 12
Air Quality Not available.
Flu Activity Not available.
METAR KRPJ 300315Z AUTO 32010G19KT 10SM SCT033 OVC042 00/M06 A3029 RMK AO2 T00011056

More Conditions Fewer Conditions

Pressure 30.29 in
Visibility 10.0 miles
Clouds Scattered Clouds 3300 ft
Overcast 4200 ft
Windchill 28 °F
Dew Point 26 °F
Humidity 75%
Rainfall 0.00 in
Snow Depth Not available.
UV 0 out of 12
Pollen .10 out of 12
Air Quality Not available.
Flu Activity Not available.
METAR KRPJ 300315Z AUTO 32010G19KT 10SM SCT033 OVC042 00/M06 A3029 RMK AO2 T00011056

More Conditions Fewer Conditions

10-Day Weather Forecast

Almanac

Astronomy

Jan. 29, 2015 Rise Set
Actual Time
Civil Twilight
Nautical Twilight
Astronomical Twilight
Moon
Length of Visible Light
Length of Day
Tomorrow will be .
, % of the Moon is Illuminated

Today's Extremes

State Highs State Lows

Community

WunderPhotos

Upload Photos

1,791,702 photos uploaded!

WunderBlogs® & News

Nearby

Air Quality

  Air Quality AQ Index Pollutant
Not available.

Snow Depth

Station Depth Elevation

Earthquake Activity

City Distance Mag. Time & Date
Minimum magnitude displayed is 2.5.

Coastal Water Temperatures

Place Temperature

Nearby Weather Stations